Williams, Iowa
Current Conditions -  °F | °C
As of 5:55 AM on Friday 28 Nov 2014 (Local Time) from KIFA Reporting Station
Overcast Overcast  
Wind Chill:   Ceiling: 12000
Heat Index: 16°   Visibility: 7mi
Dew Point: 11°   Wind: 16mph
Humidity: 81%   Direction: 140°SE
Pressure: 30.01"   Gusts: 23mph
Location:  42.49°N, 93.54°W
Report Text: KIFA 281155Z AUTO 14014G20KT 7SM OVC120 M09/M12 A3001 RMK AO2 T10901117 11088 21115
Loading
Personal Weather Stations






























Interactive Weather Map New forecast layout! Learn more

10-Day Weather Forecast

Advertisements
Track Severe Weather on mobile